Flight Track Log - Related Links

Times and Time Zones

All times are in EDT time to prevent confusion due to time zone crossing. See the N4446X flight status page for this flight to view local times or setup timezone preferences in your user account.

Time Position Orientation Groundspeed Altitude Reporting Facility
EDT Latitude Longitude Course Direction KTS MPH feet Rate Location/Type
Wed 01:12:07 PM 46.4778 -90.8006 133° Southeast 140 161 5,200  Level Minneapolis Center
Wed 01:13:09 PM 46.4503 -90.7550 131° Southeast 147 169 5,900 774 Climbing Minneapolis Center
Wed 01:14:11 PM 46.4203 -90.7064 132° Southeast 154 177 6,800 774 Climbing Minneapolis Center
Wed 01:15:13 PM 46.3992 -90.6694 130° Southeast 154 177 7,500 581 Climbing Minneapolis Center
Wed 01:16:15 PM 46.3675 -90.6247 136° Southeast 155 178 8,000 726 Climbing Minneapolis Center
Wed 01:17:00 PM 46.3247 -90.5724 133° Southeast  Level Estimated
Wed 01:17:17 PM 46.3294 -90.5667 133° Southeast 161 185 9,000  Level Minneapolis Center
Wed 01:18:19 PM 46.2889 -90.5006 132° Southeast 172 198 9,100 -48 Climbing Minneapolis Center
Wed 01:19:21 PM 46.2469 -90.4411 136° Southeast 192 221 8,900 -48 Descending Minneapolis Center
Wed 01:20:23 PM 46.2081 -90.3792 132° Southeast 202 232 9,000 48 Climbing Minneapolis Center
Wed 01:21:25 PM 46.1692 -90.3211 134° Southeast 204 235 9,000  Level Minneapolis Center
Wed 01:22:27 PM 46.1311 -90.2606 132° Southeast 204 235 9,000  Level Minneapolis Center
Wed 01:23:30 PM 46.0922 -90.2033 134° Southeast 203 234 9,000  Level Minneapolis Center
Wed 01:24:32 PM 46.0461 -90.1303 132° Southeast 204 235 9,000  Level Minneapolis Center
Wed 01:25:34 PM 46.0069 -90.0714 134° Southeast 204 235 9,000  Level Minneapolis Center
Wed 01:26:36 PM 45.9672 -90.0122 134° Southeast 205 236 9,000  Level Minneapolis Center
Wed 01:27:38 PM 45.9283 -89.9522 133° Southeast 206 237 9,000  Level Minneapolis Center
Wed 01:28:52 PM 45.8883 -89.8928 134° Southeast 207 238 9,000  Level Minneapolis Center
Wed 01:29:54 PM 45.8403 -89.8219 134° Southeast 207 238 9,000  Level Minneapolis Center
Wed 01:30:56 PM 45.7939 -89.7514 133° Southeast 206 237 9,000  Level Minneapolis Center
Wed 01:31:58 PM 45.7542 -89.6933 134° Southeast 205 236 9,000 -48 Level Minneapolis Center
Wed 01:33:00 PM 45.7158 -89.6342 133° Southeast 205 236 8,900  Descending Minneapolis Center
Wed 01:34:02 PM 45.6761 -89.5764 135° Southeast 204 235 9,000 48 Climbing Minneapolis Center
Wed 01:35:04 PM 45.6361 -89.5175 134° Southeast 206 237 9,000  Level Minneapolis Center
Wed 01:36:06 PM 45.5892 -89.4464 133° Southeast 206 237 9,000  Level Minneapolis Center
Wed 01:37:08 PM 45.5483 -89.3883 135° Southeast 207 238 9,000  Level Minneapolis Center
Wed 01:38:10 PM 45.5086 -89.3303 134° Southeast 206 237 9,000  Level Minneapolis Center
Wed 01:39:12 PM 45.4678 -89.2717 135° Southeast 207 238 9,000 -48 Level Minneapolis Center
Wed 01:40:14 PM 45.4286 -89.2131 134° Southeast 206 237 8,900  Descending Minneapolis Center
Wed 01:41:16 PM 45.3886 -89.1550 134° Southeast 206 237 9,000 48 Climbing Minneapolis Center
Wed 01:42:18 PM 45.3400 -89.0847 135° Southeast 207 238 9,000  Level Minneapolis Center
Wed 01:43:20 PM 45.3000 -89.0253 134° Southeast 208 239 9,000 -49 Level Minneapolis Center
Wed 01:44:21 PM 45.2603 -88.9658 134° Southeast 209 241 8,900 -49 Descending Minneapolis Center
Wed 01:45:23 PM 45.2269 -88.9211 137° Southeast 209 241 8,900 48 Level Minneapolis Center
Wed 01:46:25 PM 45.1803 -88.8531 134° Southeast 203 234 9,000  Climbing Minneapolis Center
Wed 01:47:27 PM 45.1397 -88.7942 134° Southeast 208 239 8,900 -48 Descending Minneapolis Center
Wed 01:48:29 PM 45.0986 -88.7375 136° Southeast 208 239 8,900  Level Minneapolis Center
Wed 01:49:31 PM 45.0522 -88.6678 133° Southeast 203 234 8,900  Level Minneapolis Center
Wed 01:50:33 PM 45.0150 -88.6128 134° Southeast 205 236 8,900  Level Minneapolis Center
Wed 01:51:35 PM 44.9758 -88.5547 134° Southeast 206 237 8,900  Level Minneapolis Center
Wed 01:52:37 PM 44.9347 -88.4983 136° Southeast 207 238 8,900 49 Level Minneapolis Center
Wed 01:53:38 PM 44.8878 -88.4333 136° Southeast 204 235 9,000  Climbing Minneapolis Center
Wed 01:54:40 PM 44.8469 -88.3767 135° Southeast 206 237 8,900 -48 Descending Minneapolis Center
Wed 01:55:42 PM 44.8072 -88.3183 134° Southeast 207 238 8,900  Level Minneapolis Center
Wed 01:56:44 PM 44.7658 -88.2608 135° Southeast 205 236 8,900  Level Minneapolis Center
Wed 01:57:46 PM 44.7264 -88.2050 135° Southeast 207 238 8,900  Level Minneapolis Center
Wed 01:58:48 PM 44.6861 -88.1478 135° Southeast 207 238 8,900  Level Minneapolis Center
Wed 01:59:49 PM 44.6389 -88.0819 135° Southeast 205 236 8,900 49 Level Minneapolis Center
Wed 02:00:51 PM 44.5978 -88.0247 135° Southeast 207 238 9,000 48 Climbing Minneapolis Center
Wed 02:01:53 PM 44.5572 -87.9667 134° Southeast 208 239 9,000  Level Minneapolis Center
Wed 02:02:55 PM 44.5136 -87.9075 136° Southeast 209 241 9,000  Level Minneapolis Center
Wed 02:03:57 PM 44.4717 -87.8514 136° Southeast 209 241 9,000  Level Minneapolis Center
Wed 02:04:59 PM 44.4328 -87.7953 134° Southeast 208 239 9,000  Level Minneapolis Center
Wed 02:06:01 PM 44.3839 -87.7278 135° Southeast 211 243 9,000  Level Minneapolis Center
Wed 02:07:14 PM 44.3433 -87.6711 135° Southeast 208 239 9,000  Level Minneapolis Center
Wed 02:08:17 PM 44.2944 -87.6056 136° Southeast 208 239 9,000  Level Minneapolis Center
Wed 02:09:18 PM 44.2539 -87.5500 136° Southeast 205 236 9,000  Level Minneapolis Center
Wed 02:10:20 PM 44.2133 -87.4953 136° Southeast 203 234 9,000 -48 Level Minneapolis Center
Wed 02:11:22 PM 44.1650 -87.4286 135° Southeast 207 238 8,900  Descending Minneapolis Center
Wed 02:12:24 PM 44.1239 -87.3722 135° Southeast 209 241 9,000 48 Climbing Minneapolis Center
Wed 02:13:26 PM 44.0822 -87.3164 136° Southeast 207 238 9,000  Level Minneapolis Center
Wed 02:14:28 PM 44.0411 -87.2586 135° Southeast 209 241 9,000  Level Minneapolis Center
Wed 02:15:29 PM 43.9981 -87.2017 136° Southeast 210 242 9,000  Level Minneapolis Center
Wed 02:16:31 PM 43.9569 -87.1450 135° Southeast 210 242 9,000  Level Minneapolis Center
Wed 02:17:35 PM 43.9150 -87.0886 136° Southeast 210 242 9,000  Level Minneapolis Center
Wed 02:18:36 PM 43.8636 -87.0203 136° Southeast 213 245 9,000  Level Minneapolis Center
Wed 02:19:38 PM 43.8214 -86.9633 136° Southeast 213 245 9,000  Level Minneapolis Center
Wed 02:20:40 PM 43.7778 -86.9075 137° Southeast 212 244 9,000  Level Minneapolis Center
Wed 02:21:42 PM 43.7364 -86.8494 135° Southeast 214 246 9,000  Level Minneapolis Center
Wed 02:22:56 PM 43.6931 -86.7922 136° Southeast 215 247 9,000  Level Minneapolis Center
Wed 02:23:58 PM 43.6428 -86.7225 135° Southeast 214 246 9,000 -58 Level Minneapolis Center
Wed 02:24:39 PM 43.6094 -86.6769 135° Southeast 214 246 8,900 -291 Descending Chicago Center
Wed 02:25:41 PM 43.5658 -86.6197 136° Southeast 216 249 8,500 -434 Descending Chicago Center
Wed 02:26:02 PM 43.5467 -86.5964 139° Southeast 218 251 8,300 -506 Descending Minneapolis Center
Wed 02:27:04 PM 43.5033 -86.5386 136° Southeast 218 251 7,800 -435 Descending Minneapolis Center
Wed 02:28:06 PM 43.4675 -86.4939 138° Southeast 218 251 7,400 -484 Descending Minneapolis Center
Wed 02:29:08 PM 43.4158 -86.4239 135° Southeast 217 250 6,800 -484 Descending Minneapolis Center
Wed 02:30:10 PM 43.3736 -86.3683 136° Southeast 214 246 6,400 -346 Descending Minneapolis Center
Wed 02:30:52 PM 43.3403 -86.3269 138° Southeast 208 239 6,200 -462 Descending Chicago Center
Wed 02:31:54 PM 43.3003 -86.2742 136° Southeast 203 234 5,600 -629 Descending Chicago Center
Wed 02:32:56 PM 43.2581 -86.2233 139° Southeast 202 232 4,900 -581 Descending Chicago Center
Wed 02:33:58 PM 43.2194 -86.1700 135° Southeast 200 230 4,400 -484 Descending Chicago Center

Login

Don't have an account? Register now (free) for customized features, flight alerts, and more!